Flight Track Log - Related Links

Times and Time Zones

All times are in EDT time to prevent confusion due to time zone crossing. See the RPA3321 flight status page for this flight to view local times or setup timezone preferences in your user account.

Time Position Orientation Groundspeed Altitude Reporting Facility
EDT Latitude Longitude Course Direction KTS MPH feet Rate Location/Type
Tue 05:47:00 AM 42.7653 -73.8089 172° South 143 165 1,500  Level Boston Center
Tue 05:48:12 AM 42.8083 -73.8722 313° West 204 235 4,400 2,672 Climbing Boston Center
Tue 05:48:59 AM 42.8453 -73.9183 318° Northwest 219 252 6,800 2,860 Climbing Boston Center
Tue 05:49:00 AM 42.5078 -74.0162 171° South  Level Estimated
Tue 05:49:59 AM 42.8839 -73.9786 311° West 233 268 9,500  Level Boston Center
Tue 05:50:00 AM 42.4273 -74.0872 180° South  Level Estimated
Tue 05:50:59 AM 42.8803 -74.0833 267° West 233 268 12,700  Level Boston Center
Tue 05:51:00 AM 42.3467 -74.1581 172° South  Level Estimated
Tue 05:51:59 AM 42.8114 -74.0986 189° South 217 250 15,100  Level Boston Center
Tue 05:52:00 AM 42.2661 -74.2287 172° South  Level Estimated
Tue 05:52:59 AM 42.7161 -74.0564 162° South 285 328 17,800  Level Boston Center
Tue 05:53:59 AM 42.6208 -74.0089 160° South 322 371 20,000 1,650 Climbing Boston Center
Tue 05:54:59 AM 42.5464 -73.9761 162° South 345 397 21,100 1,600 Climbing Boston Center
Tue 05:55:59 AM 42.4222 -73.9111 159° South 385 443 23,200 1,850 Climbing Boston Center
Tue 05:56:59 AM 42.3164 -73.8636 162° South 396 456 24,800 1,400 Climbing Boston Center
Tue 05:57:59 AM 42.2067 -73.8106 160° South 404 465 26,000 600 Climbing Boston Center
Tue 05:58:59 AM 42.0967 -73.7578 160° South 409 471 26,000  Level Boston Center
Tue 06:01:29 AM 41.8550 -73.8289 192° South 375 432 26,000  Level New York Center
Tue 06:02:27 AM 41.7578 -73.8800 201° Southwest 375 432 26,000  Level New York Center
Tue 06:03:28 AM 41.6628 -73.9339 203° Southwest 375 432 26,000  Level New York Center
Tue 06:04:28 AM 41.5614 -73.9900 202° Southwest 375 432 26,000  Level New York Center
Tue 06:05:29 AM 41.4683 -74.0408 202° Southwest 369 425 26,000  Level New York Center
Tue 06:06:30 AM 41.3731 -74.0914 202° Southwest 369 425 26,000  Level New York Center
Tue 06:07:28 AM 41.2781 -74.1419 202° Southwest 369 425 26,000  Level New York Center
Tue 06:08:27 AM 41.1786 -74.1947 202° Southwest 374 430 26,000  Level New York Center
Tue 06:09:28 AM 41.0794 -74.2419 200° South 384 442 26,000  Level New York Center
Tue 06:10:29 AM 40.9819 -74.2975 203° Southwest 384 442 26,000  Level New York Center
Tue 06:11:28 AM 40.8844 -74.3475 201° Southwest 379 436 26,000  Level New York Center
Tue 06:12:29 AM 40.7889 -74.4081 206° Southwest 379 436 26,000  Level New York Center
Tue 06:13:30 AM 40.7275 -74.5033 230° Southwest 358 412 26,000  Level New York Center
Tue 06:14:28 AM 40.6661 -74.6039 231° Southwest 358 412 26,000  Level New York Center
Tue 06:15:29 AM 40.6064 -74.7072 233° Southwest 358 412 26,000  Level New York Center
Tue 06:16:29 AM 40.5342 -74.8125 228° Southwest 375 432 26,000  Level New York Center
Tue 06:17:28 AM 40.4594 -74.9197 228° Southwest 389 448 26,000  Level New York Center
Tue 06:18:28 AM 40.3828 -75.0297 228° Southwest 408 470 26,000 -98 Level New York Center
Tue 06:19:30 AM 40.3036 -75.1364 226° Southwest 414 476 25,800 -1,100 Descending New York Center
Tue 06:20:28 AM 40.2308 -75.2433 228° Southwest 414 476 23,800 -1,916 Descending New York Center
Tue 06:21:29 AM 40.1539 -75.3497 227° Southwest 409 471 22,000 -885 Descending New York Center
Tue 06:22:30 AM 40.0811 -75.4508 227° Southwest 404 465 22,000  Level New York Center
Tue 06:23:28 AM 40.0061 -75.5539 226° Southwest 399 459 22,000  Level New York Center
Tue 06:24:28 AM 39.9331 -75.6547 227° Southwest 394 453 22,000  Level New York Center
Tue 06:25:28 AM 39.8722 -75.7667 235° Southwest 394 453 22,000  Level New York Center
Tue 06:26:29 AM 39.8108 -75.8839 236° Southwest 394 453 22,000 -1,156 Level New York Center
Tue 06:28:40 AM 39.6667 -76.1167 231° Southwest 369 425 18,300 -1,853 Descending Potomac TRACON
Tue 06:29:40 AM 39.6000 -76.2167 229° Southwest 363 418 16,100 -2,200 Descending Potomac TRACON
Tue 06:30:40 AM 39.5333 -76.3000 224° Southwest 357 411 13,900 -2,158 Descending Potomac TRACON
Tue 06:31:34 AM 39.4667 -76.4000 229° Southwest 351 404 12,000 -1,000 Descending Potomac TRACON
Tue 06:32:34 AM 39.4000 -76.4667 218° Southwest 348 400 12,000 -105 Level Potomac TRACON
Tue 06:33:28 AM 39.3167 -76.5333 212° Southwest 352 405 11,800 -889 Descending Potomac TRACON
Tue 06:34:22 AM 39.2500 -76.6000 218° Southwest 342 394 10,400 -947 Descending Potomac TRACON
Tue 06:35:22 AM 39.1833 -76.6500 210° Southwest 288 331 10,000 -198 Descending Potomac TRACON
Tue 06:36:23 AM 39.1167 -76.7167 218° Southwest 280 322 10,000 -496 Level Potomac TRACON
Tue 06:37:23 AM 39.0667 -76.8000 232° Southwest 279 321 9,000 -1,368 Descending Potomac TRACON
Tue 06:38:17 AM 39.0167 -76.8500 218° Southwest 271 312 7,400 -1,500 Descending Potomac TRACON
Tue 06:39:23 AM 38.9500 -76.9167 218° Southwest 265 305 6,000 -1,100 Descending Potomac TRACON
Tue 06:40:17 AM 38.8833 -76.9500 201° Southwest 285 328 5,200 -1,105 Descending Potomac TRACON
Tue 06:41:17 AM 38.8167 -76.9500 180° South 270 311 3,900 -1,158 Descending Potomac TRACON
Tue 06:42:11 AM 38.7500 -76.9500 180° South 236 272 3,000 -500 Descending Potomac TRACON
Tue 06:43:05 AM 38.7333 -77.0000 247° West 182 209 3,000 -579 Level Potomac TRACON
Tue 06:44:05 AM 38.7667 -77.0333 322° Northwest 158 182 1,900 -1,100 Descending Potomac TRACON

Login

Don't have an account? Register now (free) for customized features, flight alerts, and more!